createdAt,value
2019-02-14T00:00:07.726Z,5.25
2019-02-14T00:02:33.776Z,5.70
2019-02-14T00:04:59.594Z,5.83
2019-02-14T00:07:25.388Z,5.53
2019-02-14T00:09:51.271Z,5.90
2019-02-14T00:12:17.327Z,6.20
2019-02-14T00:14:43.142Z,5.85
2019-02-14T00:17:08.945Z,7.03
2019-02-14T00:19:34.806Z,6.53
2019-02-14T00:22:00.623Z,6.47
2019-02-14T00:24:29.238Z,6.60
2019-02-14T00:26:55.112Z,5.35
2019-02-14T00:29:20.921Z,6.23
2019-02-14T00:31:47.008Z,5.23
2019-02-14T00:34:13.136Z,6.25
2019-02-14T00:36:39.329Z,5.53
2019-02-14T00:39:05.577Z,7.08
2019-02-14T00:41:31.653Z,5.87
2019-02-14T00:43:57.484Z,6.25
2019-02-14T00:46:23.385Z,5.30
2019-02-14T00:48:49.601Z,5.50
2019-02-14T00:51:15.412Z,6.20
2019-02-14T00:53:41.238Z,5.80
2019-02-14T00:56:07.347Z,6.13
2019-02-14T00:58:36.095Z,5.60
2019-02-14T01:01:02.006Z,5.95
2019-02-14T01:03:30.730Z,5.47
2019-02-14T01:05:56.637Z,5.20
2019-02-14T01:08:27.252Z,4.60
2019-02-14T01:10:53.060Z,4.80
2019-02-14T01:13:22.224Z,4.33
2019-02-14T01:15:49.166Z,4.50
2019-02-14T01:18:14.943Z,3.75
2019-02-14T01:20:40.768Z,5.13
2019-02-14T01:23:06.665Z,3.83
2019-02-14T01:25:32.504Z,5.50
2019-02-14T01:27:58.292Z,5.00
2019-02-14T01:30:27.145Z,6.17
2019-02-14T01:32:53.230Z,5.33
2019-02-14T01:35:22.246Z,5.20
2019-02-14T01:37:48.301Z,4.83
2019-02-14T01:40:16.879Z,4.78
2019-02-14T01:42:42.976Z,5.05
2019-02-14T01:45:21.815Z,5.25
2019-02-14T01:47:49.576Z,4.80
2019-02-14T01:50:18.228Z,5.20
2019-02-14T01:52:44.040Z,5.47
2019-02-14T01:55:09.863Z,5.30
2019-02-14T01:57:35.704Z,4.93
2019-02-14T02:00:01.718Z,5.73
2019-02-14T02:02:27.843Z,5.47
2019-02-14T02:04:53.671Z,5.00
2019-02-14T02:07:19.907Z,5.10
2019-02-14T02:09:45.777Z,5.20
2019-02-14T02:12:12.105Z,6.17
2019-02-14T02:14:38.224Z,4.45
2019-02-14T02:17:04.053Z,4.67
2019-02-14T02:19:30.180Z,4.23
2019-02-14T02:21:56.011Z,6.47
2019-02-14T02:24:22.114Z,4.53
2019-02-14T02:26:52.609Z,4.17
2019-02-14T02:29:18.480Z,4.40
2019-02-14T02:31:44.299Z,4.90
2019-02-14T02:34:10.085Z,4.10
2019-02-14T02:36:35.917Z,4.10
2019-02-14T02:39:05.994Z,4.20
2019-02-14T02:41:31.824Z,3.95
2019-02-14T02:43:57.723Z,3.73
2019-02-14T02:46:23.539Z,4.33
2019-02-14T02:48:52.298Z,4.57
2019-02-14T02:51:18.408Z,4.40
2019-02-14T02:53:46.720Z,3.90
2019-02-14T02:56:12.565Z,4.03
2019-02-14T02:58:40.704Z,3.70
2019-02-14T03:01:06.501Z,4.40
2019-02-14T03:03:36.156Z,3.37
2019-02-14T03:06:10.197Z,3.02
2019-02-14T03:08:29.961Z,3.60
2019-02-14T03:10:55.859Z,4.07
2019-02-14T03:13:21.949Z,4.60
2019-02-14T03:15:48.013Z,3.35
2019-02-14T03:18:14.103Z,3.67
2019-02-14T03:20:43.228Z,3.95
2019-02-14T03:23:09.093Z,3.87
2019-02-14T03:25:38.246Z,4.57
2019-02-14T03:28:04.058Z,4.20
2019-02-14T03:30:33.003Z,4.57
2019-02-14T03:32:58.813Z,3.98
2019-02-14T03:35:27.395Z,3.80
2019-02-14T03:37:53.237Z,3.58
2019-02-14T03:40:22.066Z,3.63
2019-02-14T03:42:48.166Z,4.10
2019-02-14T03:45:18.313Z,4.17
2019-02-14T03:47:44.113Z,3.22
2019-02-14T03:50:11.130Z,3.70
2019-02-14T03:52:37.076Z,3.47
2019-02-14T03:55:04.714Z,3.17
2019-02-14T03:57:30.543Z,3.37
2019-02-14T03:59:56.362Z,5.07
2019-02-14T04:02:22.194Z,3.60
2019-02-14T04:04:48.017Z,3.10
2019-02-14T04:07:17.577Z,3.83
2019-02-14T04:09:43.731Z,4.35
2019-02-14T04:12:11.718Z,3.87
2019-02-14T04:14:44.756Z,4.12
2019-02-14T04:17:10.762Z,3.85
2019-02-14T04:19:36.869Z,3.90
2019-02-14T04:22:02.995Z,3.80
2019-02-14T04:24:37.181Z,4.20
2019-02-14T04:27:03.414Z,4.70
2019-02-14T04:29:29.464Z,4.42
2019-02-14T04:31:55.328Z,4.03
2019-02-14T04:34:21.542Z,4.60
2019-02-14T04:36:47.381Z,5.30
2019-02-14T04:39:13.452Z,4.93
2019-02-14T04:41:39.548Z,5.00
2019-02-14T04:44:05.642Z,6.33
2019-02-14T04:46:31.669Z,5.47
2019-02-14T04:48:57.502Z,5.72
2019-02-14T04:51:25.274Z,7.53
2019-02-14T04:53:54.262Z,7.00
2019-02-14T04:56:20.846Z,6.17
2019-02-14T04:58:46.676Z,6.60
2019-02-14T05:01:12.581Z,6.60
2019-02-14T05:03:38.386Z,6.43
2019-02-14T05:06:04.186Z,5.90
2019-02-14T05:08:30.007Z,5.33
2019-02-14T05:10:58.562Z,6.83
2019-02-14T05:13:24.399Z,6.37
2019-02-14T05:15:52.839Z,6.13
2019-02-14T05:18:18.706Z,5.83
2019-02-14T05:20:47.514Z,6.60
2019-02-14T05:23:13.342Z,6.97
2019-02-14T05:25:42.409Z,6.40
2019-02-14T05:28:08.269Z,6.50
2019-02-14T05:30:37.386Z,6.10
2019-02-14T05:33:03.174Z,6.72
2019-02-14T05:35:29.012Z,6.00
2019-02-14T05:37:54.805Z,6.63
2019-02-14T05:40:21.013Z,5.63
2019-02-14T05:42:49.701Z,5.92
2019-02-14T05:45:15.629Z,6.40
2019-02-14T05:47:43.630Z,6.90
2019-02-14T05:50:11.022Z,5.95
2019-02-14T05:52:39.590Z,6.58
2019-02-14T05:55:10.172Z,5.60
2019-02-14T05:57:36.379Z,6.95
2019-02-14T06:00:05.339Z,6.75
2019-02-14T06:02:32.227Z,7.20
2019-02-14T06:04:58.633Z,7.53
2019-02-14T06:07:24.547Z,6.65
2019-02-14T06:09:50.343Z,6.57
2019-02-14T06:12:16.127Z,6.30
2019-02-14T06:14:42.038Z,5.53
2019-02-14T06:17:07.857Z,5.80
2019-02-14T06:19:36.476Z,5.77
2019-02-14T06:22:02.342Z,4.55
2019-02-14T06:24:31.054Z,5.53
2019-02-14T06:26:56.960Z,4.35
2019-02-14T06:29:26.067Z,6.20
2019-02-14T06:31:51.871Z,7.62
2019-02-14T06:34:20.683Z,6.67
2019-02-14T06:36:46.506Z,10.63
2019-02-14T06:39:15.359Z,11.70
2019-02-14T06:41:41.252Z,12.60
2019-02-14T06:44:10.238Z,12.20
2019-02-14T06:46:36.304Z,12.65
2019-02-14T06:49:02.396Z,14.53
2019-02-14T06:51:28.454Z,17.85
2019-02-14T06:53:54.276Z,19.15
2019-02-14T06:56:20.118Z,16.00
2019-02-14T06:58:45.931Z,14.40
2019-02-14T07:01:15.074Z,12.07
2019-02-14T07:03:40.871Z,14.25
2019-02-14T07:06:09.834Z,9.93
2019-02-14T07:08:35.662Z,9.25
2019-02-14T07:11:04.507Z,8.30
2019-02-14T07:13:30.327Z,7.12
2019-02-14T07:15:58.442Z,8.10
2019-02-14T07:18:24.261Z,11.55
2019-02-14T07:20:56.054Z,12.10
2019-02-14T07:23:28.845Z,9.00
2019-02-14T07:25:54.705Z,7.95
2019-02-14T07:28:20.492Z,8.10
2019-02-14T07:30:46.291Z,7.60
2019-02-14T07:33:12.137Z,6.93
2019-02-14T07:35:37.958Z,7.43
2019-02-14T07:38:07.222Z,8.50
2019-02-14T07:40:33.037Z,8.08
2019-02-14T07:43:20.950Z,7.40
2019-02-14T07:45:46.762Z,5.85
2019-02-14T07:48:12.579Z,7.00
2019-02-14T07:50:38.388Z,6.80
2019-02-14T07:53:04.205Z,7.10
2019-02-14T07:55:30.315Z,7.80
2019-02-14T07:57:56.755Z,7.70
2019-02-14T08:00:22.646Z,7.12
2019-02-14T08:02:48.434Z,6.63
2019-02-14T08:05:14.565Z,6.30
2019-02-14T08:07:40.385Z,7.05
2019-02-14T08:10:14.232Z,7.17
2019-02-14T08:12:40.445Z,5.92
2019-02-14T08:15:11.858Z,7.83
2019-02-14T08:17:37.660Z,6.72
2019-02-14T08:20:10.547Z,7.70
2019-02-14T08:22:39.931Z,8.23
2019-02-14T08:25:08.051Z,9.33
2019-02-14T08:27:33.899Z,7.75
2019-02-14T08:29:59.710Z,10.63
2019-02-14T08:32:25.545Z,8.03
2019-02-14T08:34:51.379Z,8.40
2019-02-14T08:37:17.167Z,8.20
2019-02-14T08:39:42.994Z,8.27
2019-02-14T08:42:08.824Z,9.80
2019-02-14T08:44:34.646Z,8.33
2019-02-14T08:47:00.449Z,7.90
2019-02-14T08:49:26.250Z,8.70
2019-02-14T08:51:52.360Z,8.30
2019-02-14T08:54:18.135Z,7.33
2019-02-14T08:56:44.239Z,7.30
2019-02-14T08:59:10.054Z,7.80
2019-02-14T09:01:35.871Z,7.13
2019-02-14T09:04:01.667Z,6.63
2019-02-14T09:06:27.533Z,8.30
2019-02-14T09:08:53.614Z,14.40
2019-02-14T09:11:19.396Z,21.37
2019-02-14T09:13:45.475Z,16.03
2019-02-14T09:16:11.306Z,11.93
2019-02-14T09:18:37.468Z,14.47
2019-02-14T09:21:03.291Z,10.15
2019-02-14T09:23:29.093Z,10.50
2019-02-14T09:25:55.183Z,11.60
2019-02-14T09:28:20.999Z,10.30
2019-02-14T09:30:46.838Z,10.53
2019-02-14T09:33:12.937Z,7.87
2019-02-14T09:35:38.742Z,8.87
2019-02-14T09:38:24.502Z,8.27
2019-02-14T09:40:50.335Z,8.43
2019-02-14T09:43:16.128Z,8.77
2019-02-14T09:45:41.924Z,8.47
2019-02-14T09:48:07.718Z,8.30
2019-02-14T09:50:33.510Z,8.67
2019-02-14T09:52:59.591Z,8.03
2019-02-14T09:55:25.417Z,8.50
2019-02-14T09:57:51.238Z,9.17
2019-02-14T10:00:18.044Z,10.67
2019-02-14T10:02:44.152Z,13.27
2019-02-14T10:05:10.034Z,10.17
2019-02-14T10:07:35.962Z,8.97
2019-02-14T10:10:03.722Z,9.00
2019-02-14T10:12:29.536Z,8.90
2019-02-14T10:14:55.596Z,9.40
2019-02-14T10:17:22.408Z,8.50
2019-02-14T10:19:48.390Z,8.60
2019-02-14T10:22:14.266Z,8.30
2019-02-14T10:24:40.295Z,7.17
2019-02-14T10:27:06.101Z,8.07
2019-02-14T10:29:31.924Z,6.97
2019-02-14T10:31:57.731Z,8.97
2019-02-14T10:34:23.517Z,6.73
2019-02-14T10:36:52.104Z,6.30
2019-02-14T10:39:17.887Z,6.40
2019-02-14T10:41:48.794Z,6.03
2019-02-14T10:44:14.645Z,7.73
2019-02-14T10:46:43.705Z,6.13
2019-02-14T10:49:09.504Z,7.20
2019-02-14T10:51:38.399Z,5.40
2019-02-14T10:54:04.470Z,5.17
2019-02-14T10:56:33.370Z,4.40
2019-02-14T10:58:59.291Z,4.93
2019-02-14T11:01:25.212Z,3.70
2019-02-14T11:03:51.435Z,3.53
2019-02-14T11:06:17.273Z,3.30
2019-02-14T11:08:43.329Z,3.13
2019-02-14T11:11:09.261Z,2.87
2019-02-14T11:13:38.083Z,2.50
2019-02-14T11:16:04.296Z,3.20
2019-02-14T11:18:32.924Z,3.40
2019-02-14T11:20:58.760Z,2.67
2019-02-14T11:23:27.505Z,3.00
2019-02-14T11:25:53.351Z,3.30
2019-02-14T11:28:22.311Z,3.07
2019-02-14T11:30:48.140Z,3.10
2019-02-14T11:33:16.699Z,3.27
2019-02-14T11:35:42.525Z,3.70
2019-02-14T11:38:10.856Z,3.43
2019-02-14T11:40:36.957Z,3.50
2019-02-14T11:43:02.764Z,4.00
2019-02-14T11:45:28.597Z,2.70
2019-02-14T11:47:54.411Z,2.70
2019-02-14T11:50:22.475Z,3.00
2019-02-14T11:52:48.311Z,2.93
2019-02-14T11:55:16.969Z,3.17
2019-02-14T11:57:42.800Z,3.07
2019-02-14T12:00:26.520Z,4.20
2019-02-14T12:02:55.696Z,3.43
2019-02-14T12:05:20.197Z,3.77
2019-02-14T12:07:46.344Z,3.63
2019-02-14T12:10:13.897Z,3.40
2019-02-14T12:12:40.086Z,3.30
2019-02-14T12:15:08.300Z,3.10
2019-02-14T12:17:34.123Z,3.50
2019-02-14T12:19:59.827Z,4.10
2019-02-14T12:22:25.836Z,4.00
2019-02-14T12:24:51.651Z,4.17
2019-02-14T12:27:17.461Z,4.00
2019-02-14T12:29:43.552Z,4.73
2019-02-14T12:32:09.372Z,4.50
2019-02-14T12:34:35.443Z,3.80
2019-02-14T12:37:01.242Z,4.40
2019-02-14T12:39:27.341Z,4.37
2019-02-14T12:41:53.133Z,4.40
2019-02-14T12:44:19.192Z,5.57
2019-02-14T12:46:47.860Z,4.67
2019-02-14T12:49:13.675Z,3.93
2019-02-14T12:51:42.688Z,4.77
2019-02-14T12:54:11.342Z,3.83
2019-02-14T12:56:37.207Z,3.53
2019-02-14T12:59:03.047Z,4.17
2019-02-14T13:01:28.873Z,3.43
2019-02-14T13:03:54.671Z,4.43
2019-02-14T13:06:20.747Z,4.20
2019-02-14T13:08:49.645Z,4.07
2019-02-14T13:11:15.441Z,4.90
2019-02-14T13:13:49.819Z,5.00
2019-02-14T13:16:12.280Z,4.83
2019-02-14T13:18:38.086Z,4.40
2019-02-14T13:21:05.768Z,4.40
2019-02-14T13:23:31.768Z,4.10
2019-02-14T13:25:57.599Z,4.70
2019-02-14T13:28:26.514Z,4.37
2019-02-14T13:30:52.653Z,5.07
2019-02-14T13:33:18.444Z,3.47
2019-02-14T13:35:44.268Z,4.10
2019-02-14T13:38:10.052Z,4.40
2019-02-14T13:40:38.211Z,3.60
2019-02-14T13:43:26.130Z,3.97
2019-02-14T13:45:52.028Z,4.50
2019-02-14T13:48:17.822Z,3.80
2019-02-14T13:50:43.608Z,4.30
2019-02-14T13:53:09.426Z,3.80
2019-02-14T13:55:35.341Z,3.93
2019-02-14T13:58:01.401Z,4.13
2019-02-14T14:00:28.500Z,4.40
2019-02-14T14:02:54.310Z,4.00
2019-02-14T14:05:20.155Z,4.13
2019-02-14T14:07:45.982Z,3.83
2019-02-14T14:10:11.872Z,4.27
2019-02-14T14:12:53.184Z,4.27
2019-02-14T14:15:19.637Z,4.80
2019-02-14T14:17:45.687Z,4.53
2019-02-14T14:20:11.630Z,4.23
2019-02-14T14:22:37.593Z,5.63
2019-02-14T14:25:05.094Z,4.33
2019-02-14T14:27:31.303Z,4.23
2019-02-14T14:29:58.804Z,4.70
2019-02-14T14:32:24.785Z,4.30
2019-02-14T14:34:50.868Z,3.80
2019-02-14T14:37:19.713Z,4.80
2019-02-14T14:39:47.866Z,4.33
2019-02-14T14:42:27.775Z,3.10
2019-02-14T14:44:53.626Z,3.03
2019-02-14T14:47:19.422Z,3.57
2019-02-14T14:49:45.478Z,2.83
2019-02-14T14:52:11.279Z,2.57
2019-02-14T14:54:37.115Z,3.80
2019-02-14T14:57:03.190Z,3.23
2019-02-14T14:59:28.996Z,3.67
2019-02-14T15:01:54.843Z,3.53
2019-02-14T15:04:20.899Z,4.00
2019-02-14T15:06:47.119Z,3.17
2019-02-14T15:09:12.917Z,5.50
2019-02-14T15:11:38.736Z,4.60
2019-02-14T15:14:04.520Z,4.27
2019-02-14T15:16:30.355Z,3.73
2019-02-14T15:18:56.447Z,4.43
2019-02-14T15:21:22.604Z,4.43
2019-02-14T15:23:48.425Z,4.67
2019-02-14T15:26:14.279Z,4.77
2019-02-14T15:28:40.082Z,3.67
2019-02-14T15:33:42.642Z,4.43
2019-02-14T15:36:08.485Z,4.10
2019-02-14T15:38:35.045Z,3.80
2019-02-14T15:41:01.986Z,4.23
2019-02-14T15:43:27.799Z,4.47
2019-02-14T15:45:53.621Z,4.50
2019-02-14T15:48:19.541Z,4.77
2019-02-14T15:50:45.386Z,4.27
2019-02-14T15:53:11.189Z,4.70
2019-02-14T15:55:39.082Z,4.83
2019-02-14T15:58:07.290Z,4.10
2019-02-14T16:00:35.147Z,5.77
2019-02-14T16:03:06.973Z,5.90
2019-02-14T16:05:32.772Z,4.93
2019-02-14T16:08:00.500Z,5.90
2019-02-14T16:10:27.749Z,5.30
2019-02-14T16:12:54.363Z,5.10
2019-02-14T16:15:20.432Z,5.90
2019-02-14T16:17:46.524Z,5.20
2019-02-14T16:20:12.650Z,5.77
2019-02-14T16:22:40.214Z,5.73
2019-02-14T16:25:06.976Z,5.00
2019-02-14T16:27:32.937Z,4.83
2019-02-14T16:29:58.753Z,4.83
2019-02-14T16:32:24.564Z,4.80
2019-02-14T16:34:50.381Z,5.37
2019-02-14T16:37:16.474Z,5.70
2019-02-14T16:39:51.315Z,6.50
2019-02-14T16:42:10.022Z,5.03
2019-02-14T16:44:36.120Z,5.87
2019-02-14T16:47:01.954Z,4.83
2019-02-14T16:49:27.754Z,5.67
2019-02-14T16:51:53.596Z,4.80
2019-02-14T16:54:19.671Z,5.70
2019-02-14T16:56:45.766Z,6.08
2019-02-14T16:59:11.585Z,6.30
2019-02-14T17:01:37.423Z,5.73
2019-02-14T17:04:06.032Z,5.03
2019-02-14T17:06:32.125Z,6.05
2019-02-14T17:09:01.235Z,5.75
2019-02-14T17:11:27.058Z,6.45
2019-02-14T17:13:52.852Z,6.47
2019-02-14T17:16:18.690Z,7.10
2019-02-14T17:18:44.539Z,6.93
2019-02-14T17:21:10.330Z,6.57
2019-02-14T17:23:36.291Z,5.50
2019-02-14T17:26:04.987Z,6.83
2019-02-14T17:28:31.111Z,7.92
2019-02-14T17:31:00.219Z,7.05
2019-02-14T17:33:26.458Z,11.15
2019-02-14T17:35:55.674Z,11.20
2019-02-14T17:38:21.546Z,13.32
2019-02-14T17:40:50.124Z,10.87
2019-02-14T17:43:16.212Z,6.50
2019-02-14T17:45:45.028Z,7.03
2019-02-14T17:48:11.159Z,6.95
2019-02-14T17:50:37.228Z,6.92
2019-02-14T17:53:03.320Z,7.47
2019-02-14T17:55:29.394Z,7.95
2019-02-14T17:57:58.025Z,9.55
2019-02-14T18:00:23.863Z,9.48
2019-02-14T18:02:52.783Z,9.70
2019-02-14T18:05:18.618Z,7.83
2019-02-14T18:07:47.403Z,8.67
2019-02-14T18:10:13.326Z,7.28
2019-02-14T18:12:42.163Z,6.67
2019-02-14T18:15:10.571Z,6.83
2019-02-14T18:17:36.399Z,7.15
2019-02-14T18:20:03.032Z,6.80
2019-02-14T18:22:33.089Z,6.90
2019-02-14T18:24:59.314Z,7.80
2019-02-14T18:27:25.445Z,7.55
2019-02-14T18:29:51.276Z,6.10
2019-02-14T18:32:17.082Z,7.53
2019-02-14T18:34:43.206Z,6.80
2019-02-14T18:37:09.229Z,6.72
2019-02-14T18:39:38.089Z,6.40
2019-02-14T18:42:04.197Z,7.12
2019-02-14T18:44:32.858Z,5.78
2019-02-14T18:46:58.952Z,6.87
2019-02-14T18:49:28.116Z,5.80
2019-02-14T18:51:53.918Z,7.28
2019-02-14T18:54:20.077Z,7.97
2019-02-14T18:56:45.871Z,7.22
2019-02-14T18:59:15.251Z,6.37
2019-02-14T19:01:41.295Z,6.17
2019-02-14T19:04:07.124Z,6.00
2019-02-14T19:06:32.922Z,5.80
2019-02-14T19:08:58.743Z,6.43
2019-02-14T19:11:27.560Z,12.47
2019-02-14T19:13:53.380Z,9.35
2019-02-14T19:16:22.398Z,7.10
2019-02-14T19:18:48.186Z,6.50
2019-02-14T19:21:16.805Z,6.10
2019-02-14T19:23:42.615Z,6.20
2019-02-14T19:26:11.585Z,5.30
2019-02-14T19:28:37.426Z,6.78
2019-02-14T19:31:06.377Z,6.50
2019-02-14T19:33:32.528Z,7.30
2019-02-14T19:36:00.110Z,8.08
2019-02-14T19:38:26.198Z,8.33
2019-02-14T19:40:51.999Z,7.33
2019-02-14T19:43:17.833Z,8.90
2019-02-14T19:45:43.664Z,8.30
2019-02-14T19:48:12.602Z,8.80
2019-02-14T19:50:38.719Z,10.35
2019-02-14T19:53:07.441Z,11.15
2019-02-14T19:55:33.550Z,10.15
2019-02-14T19:58:02.210Z,11.48
2019-02-14T20:00:27.995Z,10.10
2019-02-14T20:02:56.756Z,12.43
2019-02-14T20:05:22.577Z,11.53
2019-02-14T20:07:51.494Z,11.70
2019-02-14T20:10:17.528Z,8.63
2019-02-14T20:12:46.555Z,11.73
2019-02-14T20:15:18.862Z,10.72
2019-02-14T20:17:44.689Z,9.78
2019-02-14T20:20:10.547Z,10.70
2019-02-14T20:22:36.720Z,8.70
2019-02-14T20:25:06.597Z,9.85
2019-02-14T20:27:32.753Z,9.48
2019-02-14T20:29:58.601Z,9.05
2019-02-14T20:32:24.389Z,9.37
2019-02-14T20:34:50.185Z,7.90
2019-02-14T20:37:16.262Z,10.80
2019-02-14T20:39:42.055Z,16.30
2019-02-14T20:42:08.146Z,14.90
2019-02-14T20:44:36.951Z,11.25
2019-02-14T20:47:03.059Z,11.00
2019-02-14T20:49:32.209Z,10.53
2019-02-14T20:51:58.280Z,10.25
2019-02-14T20:54:24.102Z,11.00
2019-02-14T20:56:51.608Z,13.50
2019-02-14T20:59:17.417Z,10.68
2019-02-14T21:01:43.385Z,10.70
2019-02-14T21:04:09.204Z,11.97
2019-02-14T21:06:38.040Z,9.97
2019-02-14T21:09:04.452Z,13.08
2019-02-14T21:11:33.352Z,9.70
2019-02-14T21:13:59.154Z,9.75
2019-02-14T21:16:27.725Z,8.50
2019-02-14T21:18:53.558Z,7.87
2019-02-14T21:21:22.560Z,8.57
2019-02-14T21:23:48.396Z,5.97
2019-02-14T21:26:17.230Z,6.50
2019-02-14T21:28:43.085Z,6.17
2019-02-14T21:31:08.917Z,5.73
2019-02-14T21:33:34.725Z,6.17
2019-02-14T21:36:00.545Z,6.20
2019-02-14T21:38:29.262Z,6.70
2019-02-14T21:40:55.170Z,5.95
2019-02-14T21:43:24.224Z,9.00
2019-02-14T21:45:50.042Z,5.75
2019-02-14T21:48:18.725Z,6.10
2019-02-14T21:50:44.483Z,6.15
2019-02-14T21:53:13.087Z,12.10
2019-02-14T21:55:38.893Z,11.80
2019-02-14T21:58:07.565Z,18.63
2019-02-14T22:00:33.446Z,11.00
2019-02-14T22:03:03.108Z,8.90
2019-02-14T22:05:28.991Z,9.80
2019-02-14T22:07:57.814Z,8.57
2019-02-14T22:10:23.657Z,10.10
2019-02-14T22:12:49.473Z,10.97
2019-02-14T22:15:21.302Z,9.80
2019-02-14T22:17:47.204Z,10.08
2019-02-14T22:20:12.971Z,10.57
2019-02-14T22:22:39.141Z,11.40
2019-02-14T22:25:07.459Z,9.80
2019-02-14T22:27:33.267Z,10.72
2019-02-14T22:29:59.364Z,11.67
2019-02-14T22:32:25.189Z,11.05
2019-02-14T22:34:54.012Z,11.57
2019-02-14T22:37:19.801Z,11.70
2019-02-14T22:39:48.372Z,12.07
2019-02-14T22:42:14.200Z,12.68
2019-02-14T22:44:40.005Z,9.53
2019-02-14T22:47:06.148Z,9.97
2019-02-14T22:49:31.982Z,10.82
2019-02-14T22:52:04.223Z,10.60
2019-02-14T22:54:30.074Z,8.75
2019-02-14T22:56:59.531Z,8.90
2019-02-14T22:59:25.602Z,9.00
2019-02-14T23:01:51.431Z,8.45
2019-02-14T23:04:17.209Z,7.60
2019-02-14T23:06:43.042Z,6.50
2019-02-14T23:09:09.103Z,7.40
2019-02-14T23:11:37.978Z,6.83
2019-02-14T23:14:03.847Z,6.97
2019-02-14T23:16:31.888Z,6.40
2019-02-14T23:18:58.034Z,5.92
2019-02-14T23:21:23.840Z,7.90
2019-02-14T23:23:49.978Z,8.13
2019-02-14T23:26:15.766Z,12.33
2019-02-14T23:28:43.766Z,11.10
2019-02-14T23:31:09.690Z,10.43
2019-02-14T23:33:38.799Z,10.30
2019-02-14T23:36:05.083Z,10.50
2019-02-14T23:38:33.120Z,10.88
2019-02-14T23:40:58.960Z,10.65
2019-02-14T23:43:27.709Z,9.90
2019-02-14T23:45:56.977Z,9.53
2019-02-14T23:48:23.096Z,9.93
2019-02-14T23:50:48.907Z,9.90
2019-02-14T23:53:17.780Z,9.00
2019-02-14T23:55:43.862Z,7.62
2019-02-14T23:58:10.113Z,6.95
